sensor_id;sensor_type;location;lat;lon;timestamp;pressure;altitude;pressure_sealevel;temperature;humidity
10474;BME280;5284;50.446;7.904;2023-03-09T00:03:38;95778.94;;;2.08;100.00
10474;BME280;5284;50.446;7.904;2023-03-09T00:08:43;95772.69;;;2.09;100.00
10474;BME280;5284;50.446;7.904;2023-03-09T00:13:47;95769.09;;;2.10;100.00
10474;BME280;5284;50.446;7.904;2023-03-09T00:18:51;95773.22;;;2.13;100.00
10474;BME280;5284;50.446;7.904;2023-03-09T00:23:56;95778.47;;;2.13;100.00
10474;BME280;5284;50.446;7.904;2023-03-09T00:28:59;95770.56;;;2.13;100.00
10474;BME280;5284;50.446;7.904;2023-03-09T00:34:02;95764.22;;;2.15;100.00
10474;BME280;5284;50.446;7.904;2023-03-09T00:39:06;95779.97;;;2.15;100.00
10474;BME280;5284;50.446;7.904;2023-03-09T00:44:13;95779.00;;;2.16;100.00
10474;BME280;5284;50.446;7.904;2023-03-09T00:49:16;95790.50;;;2.15;100.00
10474;BME280;5284;50.446;7.904;2023-03-09T00:54:20;95781.78;;;2.15;100.00
10474;BME280;5284;50.446;7.904;2023-03-09T00:59:23;95785.38;;;2.14;100.00
10474;BME280;5284;50.446;7.904;2023-03-09T01:04:26;95778.84;;;2.18;100.00
10474;BME280;5284;50.446;7.904;2023-03-09T01:09:30;95779.97;;;2.15;100.00
10474;BME280;5284;50.446;7.904;2023-03-09T01:14:34;95775.16;;;2.11;100.00
10474;BME280;5284;50.446;7.904;2023-03-09T01:19:37;95794.41;;;2.11;100.00
10474;BME280;5284;50.446;7.904;2023-03-09T01:24:41;95791.91;;;2.10;100.00
10474;BME280;5284;50.446;7.904;2023-03-09T01:29:44;95803.09;;;2.12;100.00
10474;BME280;5284;50.446;7.904;2023-03-09T01:34:48;95789.13;;;2.11;100.00
10474;BME280;5284;50.446;7.904;2023-03-09T01:39:52;95799.66;;;2.11;100.00
10474;BME280;5284;50.446;7.904;2023-03-09T01:50:52;95811.81;;;2.12;100.00
10474;BME280;5284;50.446;7.904;2023-03-09T01:55:58;95791.91;;;2.10;100.00
10474;BME280;5284;50.446;7.904;2023-03-09T02:01:04;95803.94;;;2.12;100.00
10474;BME280;5284;50.446;7.904;2023-03-09T02:06:11;95810.97;;;2.12;100.00
10474;BME280;5284;50.446;7.904;2023-03-09T02:11:18;95811.53;;;2.15;100.00
10474;BME280;5284;50.446;7.904;2023-03-09T02:16:21;95816.78;;;2.15;100.00
10474;BME280;5284;50.446;7.904;2023-03-09T02:21:31;95827.00;;;2.18;100.00
10474;BME280;5284;50.446;7.904;2023-03-09T02:26:40;95834.44;;;2.23;100.00
10474;BME280;5284;50.446;7.904;2023-03-09T02:31:47;95843.00;;;2.25;100.00
10474;BME280;5284;50.446;7.904;2023-03-09T02:36:50;95850.44;;;2.29;100.00
10474;BME280;5284;50.446;7.904;2023-03-09T02:41:57;95863.72;;;2.55;100.00
10474;BME280;5284;50.446;7.904;2023-03-09T02:47:08;95863.47;;;2.75;100.00
10474;BME280;5284;50.446;7.904;2023-03-09T02:52:12;95880.25;;;2.92;100.00
10474;BME280;5284;50.446;7.904;2023-03-09T02:57:15;95896.31;;;3.06;100.00
10474;BME280;5284;50.446;7.904;2023-03-09T03:02:20;95903.28;;;3.24;100.00
10474;BME280;5284;50.446;7.904;2023-03-09T03:07:25;95918.97;;;3.34;100.00
10474;BME280;5284;50.446;7.904;2023-03-09T03:12:28;95944.78;;;3.48;100.00
10474;BME280;5284;50.446;7.904;2023-03-09T03:17:34;95949.44;;;3.54;100.00
10474;BME280;5284;50.446;7.904;2023-03-09T03:22:38;95956.59;;;3.61;100.00
10474;BME280;5284;50.446;7.904;2023-03-09T03:27:41;95969.97;;;3.68;100.00
10474;BME280;5284;50.446;7.904;2023-03-09T03:32:46;95987.91;;;3.82;100.00
10474;BME280;5284;50.446;7.904;2023-03-09T03:37:56;96001.13;;;3.90;100.00
10474;BME280;5284;50.446;7.904;2023-03-09T03:43:00;96015.72;;;4.02;100.00
10474;BME280;5284;50.446;7.904;2023-03-09T03:48:05;96028.38;;;4.16;100.00
10474;BME280;5284;50.446;7.904;2023-03-09T03:53:08;96045.69;;;4.18;100.00
10474;BME280;5284;50.446;7.904;2023-03-09T03:58:11;96032.63;;;4.34;100.00
10474;BME280;5284;50.446;7.904;2023-03-09T04:03:17;96049.34;;;4.25;100.00
10474;BME280;5284;50.446;7.904;2023-03-09T04:08:21;96057.84;;;4.37;100.00
10474;BME280;5284;50.446;7.904;2023-03-09T04:13:26;96073.59;;;4.46;100.00
10474;BME280;5284;50.446;7.904;2023-03-09T04:18:30;96085.97;;;4.46;100.00
10474;BME280;5284;50.446;7.904;2023-03-09T04:23:33;96092.88;;;4.64;100.00
10474;BME280;5284;50.446;7.904;2023-03-09T04:28:37;96106.16;;;4.54;100.00
10474;BME280;5284;50.446;7.904;2023-03-09T04:33:45;96110.75;;;4.52;100.00
10474;BME280;5284;50.446;7.904;2023-03-09T04:38:52;96120.94;;;4.47;100.00
10474;BME280;5284;50.446;7.904;2023-03-09T04:43:57;96124.72;;;4.45;100.00
10474;BME280;5284;50.446;7.904;2023-03-09T04:49:01;96129.84;;;4.47;100.00
10474;BME280;5284;50.446;7.904;2023-03-09T04:54:04;96148.38;;;4.37;100.00
10474;BME280;5284;50.446;7.904;2023-03-09T04:59:07;96149.00;;;4.31;100.00
10474;BME280;5284;50.446;7.904;2023-03-09T05:04:13;96147.47;;;4.29;100.00
10474;BME280;5284;50.446;7.904;2023-03-09T05:09:23;96156.81;;;4.23;100.00
10474;BME280;5284;50.446;7.904;2023-03-09T05:14:28;96158.47;;;4.24;100.00
10474;BME280;5284;50.446;7.904;2023-03-09T05:19:33;96174.78;;;4.20;100.00
10474;BME280;5284;50.446;7.904;2023-03-09T05:24:37;96175.44;;;4.22;100.00
10474;BME280;5284;50.446;7.904;2023-03-09T05:29:41;96176.56;;;4.19;100.00
10474;BME280;5284;50.446;7.904;2023-03-09T05:34:46;96186.28;;;4.19;100.00
10474;BME280;5284;50.446;7.904;2023-03-09T05:39:49;96184.78;;;4.16;100.00
10474;BME280;5284;50.446;7.904;2023-03-09T05:44:53;96189.53;;;4.13;100.00
10474;BME280;5284;50.446;7.904;2023-03-09T05:49:58;96197.44;;;4.13;100.00
10474;BME280;5284;50.446;7.904;2023-03-09T05:55:02;96189.22;;;4.16;100.00
10474;BME280;5284;50.446;7.904;2023-03-09T06:00:08;96203.41;;;4.15;100.00
10474;BME280;5284;50.446;7.904;2023-03-09T06:05:22;96202.63;;;4.22;100.00
10474;BME280;5284;50.446;7.904;2023-03-09T06:10:26;96216.75;;;4.31;100.00
10474;BME280;5284;50.446;7.904;2023-03-09T06:15:29;96220.31;;;4.56;100.00
10474;BME280;5284;50.446;7.904;2023-03-09T06:20:37;96232.34;;;4.59;100.00
10474;BME280;5284;50.446;7.904;2023-03-09T06:25:40;96227.53;;;4.72;100.00
10474;BME280;5284;50.446;7.904;2023-03-09T06:30:43;96241.94;;;4.77;100.00
10474;BME280;5284;50.446;7.904;2023-03-09T06:35:48;96234.56;;;5.06;100.00
10474;BME280;5284;50.446;7.904;2023-03-09T06:40:52;96234.66;;;5.14;100.00
10474;BME280;5284;50.446;7.904;2023-03-09T06:45:56;96256.84;;;5.47;100.00
10474;BME280;5284;50.446;7.904;2023-03-09T06:51:03;96259.13;;;5.42;100.00
10474;BME280;5284;50.446;7.904;2023-03-09T06:56:08;96272.09;;;5.61;100.00
10474;BME280;5284;50.446;7.904;2023-03-09T07:01:13;96277.91;;;5.82;100.00
10474;BME280;5284;50.446;7.904;2023-03-09T07:06:19;96279.72;;;5.81;100.00
10474;BME280;5284;50.446;7.904;2023-03-09T07:11:22;96290.75;;;6.10;100.00
10474;BME280;5284;50.446;7.904;2023-03-09T07:16:26;96302.00;;;6.12;100.00
10474;BME280;5284;50.446;7.904;2023-03-09T07:21:31;96318.78;;;6.28;100.00
10474;BME280;5284;50.446;7.904;2023-03-09T07:26:34;96321.66;;;6.43;100.00
10474;BME280;5284;50.446;7.904;2023-03-09T07:31:37;96335.56;;;6.45;100.00
10474;BME280;5284;50.446;7.904;2023-03-09T07:36:41;96342.09;;;6.58;100.00
10474;BME280;5284;50.446;7.904;2023-03-09T07:41:44;96349.09;;;6.75;100.00
10474;BME280;5284;50.446;7.904;2023-03-09T07:46:47;96359.34;;;6.70;100.00
10474;BME280;5284;50.446;7.904;2023-03-09T07:51:51;96383.38;;;6.77;100.00
10474;BME280;5284;50.446;7.904;2023-03-09T07:56:57;96383.03;;;6.80;100.00
10474;BME280;5284;50.446;7.904;2023-03-09T08:02:00;96390.25;;;7.03;100.00
10474;BME280;5284;50.446;7.904;2023-03-09T08:07:04;96398.03;;;7.13;100.00
10474;BME280;5284;50.446;7.904;2023-03-09T08:12:08;96397.25;;;7.20;100.00
10474;BME280;5284;50.446;7.904;2023-03-09T08:17:11;96411.66;;;7.18;100.00
10474;BME280;5284;50.446;7.904;2023-03-09T08:22:16;96422.59;;;7.15;100.00
10474;BME280;5284;50.446;7.904;2023-03-09T08:27:19;96422.16;;;7.35;100.00
10474;BME280;5284;50.446;7.904;2023-03-09T08:32:22;96430.25;;;7.42;100.00
10474;BME280;5284;50.446;7.904;2023-03-09T08:37:28;96434.53;;;7.27;100.00
10474;BME280;5284;50.446;7.904;2023-03-09T08:42:31;96444.97;;;7.28;100.00
10474;BME280;5284;50.446;7.904;2023-03-09T08:47:35;96452.44;;;7.25;100.00
10474;BME280;5284;50.446;7.904;2023-03-09T08:52:40;96465.19;;;7.29;100.00
10474;BME280;5284;50.446;7.904;2023-03-09T08:57:43;96478.28;;;7.31;100.00
10474;BME280;5284;50.446;7.904;2023-03-09T09:02:46;96481.50;;;7.58;100.00
10474;BME280;5284;50.446;7.904;2023-03-09T09:07:51;96479.56;;;7.84;100.00
10474;BME280;5284;50.446;7.904;2023-03-09T09:12:55;96492.69;;;7.93;100.00
10474;BME280;5284;50.446;7.904;2023-03-09T09:17:58;96492.00;;;7.99;100.00
10474;BME280;5284;50.446;7.904;2023-03-09T09:23:02;96501.63;;;8.00;100.00
10474;BME280;5284;50.446;7.904;2023-03-09T09:28:06;96511.44;;;8.08;100.00
10474;BME280;5284;50.446;7.904;2023-03-09T09:33:12;96525.03;;;8.05;100.00
10474;BME280;5284;50.446;7.904;2023-03-09T09:38:16;96520.53;;;8.13;100.00
10474;BME280;5284;50.446;7.904;2023-03-09T09:43:20;96540.50;;;8.25;100.00
10474;BME280;5284;50.446;7.904;2023-03-09T09:48:24;96543.16;;;8.33;100.00
10474;BME280;5284;50.446;7.904;2023-03-09T09:53:38;96557.44;;;8.40;100.00
10474;BME280;5284;50.446;7.904;2023-03-09T09:58:47;96546.66;;;8.42;100.00
10474;BME280;5284;50.446;7.904;2023-03-09T10:04:08;96565.25;;;8.50;100.00
10474;BME280;5284;50.446;7.904;2023-03-09T10:09:20;96575.19;;;8.56;100.00
10474;BME280;5284;50.446;7.904;2023-03-09T10:14:29;96577.03;;;8.71;100.00
10474;BME280;5284;50.446;7.904;2023-03-09T10:19:36;96593.97;;;8.62;100.00
10474;BME280;5284;50.446;7.904;2023-03-09T10:24:43;96591.66;;;8.59;100.00
10474;BME280;5284;50.446;7.904;2023-03-09T10:29:53;96599.59;;;8.43;100.00
10474;BME280;5284;50.446;7.904;2023-03-09T10:35:20;96595.97;;;8.52;100.00
10474;BME280;5284;50.446;7.904;2023-03-09T10:40:28;96608.09;;;8.71;100.00
10474;BME280;5284;50.446;7.904;2023-03-09T10:45:33;96606.38;;;9.02;100.00
10474;BME280;5284;50.446;7.904;2023-03-09T10:50:37;96615.03;;;9.11;100.00
10474;BME280;5284;50.446;7.904;2023-03-09T10:55:45;96615.97;;;9.34;100.00
10474;BME280;5284;50.446;7.904;2023-03-09T11:00:58;96621.09;;;9.44;100.00
10474;BME280;5284;50.446;7.904;2023-03-09T11:06:16;96620.09;;;9.53;100.00
10474;BME280;5284;50.446;7.904;2023-03-09T11:11:24;96624.28;;;9.86;100.00
10474;BME280;5284;50.446;7.904;2023-03-09T11:16:30;96635.91;;;9.85;100.00
10474;BME280;5284;50.446;7.904;2023-03-09T11:21:37;96627.78;;;9.86;100.00
10474;BME280;5284;50.446;7.904;2023-03-09T11:26:45;96626.22;;;10.08;100.00
10474;BME280;5284;50.446;7.904;2023-03-09T11:31:51;96634.59;;;10.27;100.00
10474;BME280;5284;50.446;7.904;2023-03-09T11:36:57;96644.00;;;9.99;100.00
10474;BME280;5284;50.446;7.904;2023-03-09T11:42:05;96638.88;;;9.98;100.00
10474;BME280;5284;50.446;7.904;2023-03-09T11:47:23;96635.91;;;9.85;100.00
10474;BME280;5284;50.446;7.904;2023-03-09T11:52:30;96640.69;;;9.59;100.00
10474;BME280;5284;50.446;7.904;2023-03-09T11:57:35;96642.41;;;9.90;100.00
10474;BME280;5284;50.446;7.904;2023-03-09T12:02:50;96653.34;;;9.95;100.00
10474;BME280;5284;50.446;7.904;2023-03-09T12:07:59;96646.38;;;9.94;100.00
10474;BME280;5284;50.446;7.904;2023-03-09T12:13:11;96659.00;;;10.00;100.00
10474;BME280;5284;50.446;7.904;2023-03-09T12:18:18;96655.34;;;10.62;100.00
10474;BME280;5284;50.446;7.904;2023-03-09T12:23:42;96668.56;;;10.25;100.00
10474;BME280;5284;50.446;7.904;2023-03-09T12:28:58;96674.75;;;10.18;100.00
10474;BME280;5284;50.446;7.904;2023-03-09T12:34:05;96671.97;;;10.03;100.00
10474;BME280;5284;50.446;7.904;2023-03-09T12:39:30;96673.66;;;9.96;100.00
10474;BME280;5284;50.446;7.904;2023-03-09T12:45:00;96671.00;;;10.04;100.00
10474;BME280;5284;50.446;7.904;2023-03-09T12:50:05;96655.16;;;10.41;100.00
10474;BME280;5284;50.446;7.904;2023-03-09T12:55:43;96663.44;;;11.50;100.00
10474;BME280;5284;50.446;7.904;2023-03-09T13:00:51;96660.00;;;11.27;100.00
10474;BME280;5284;50.446;7.904;2023-03-09T13:05:55;96660.88;;;11.05;100.00
10474;BME280;5284;50.446;7.904;2023-03-09T13:11:31;96656.69;;;11.03;100.00
10474;BME280;5284;50.446;7.904;2023-03-09T13:16:47;96645.78;;;11.12;100.00
10474;BME280;5284;50.446;7.904;2023-03-09T13:22:18;96641.59;;;11.18;100.00
10474;BME280;5284;50.446;7.904;2023-03-09T13:27:24;96652.00;;;11.27;100.00
10474;BME280;5284;50.446;7.904;2023-03-09T13:32:30;96631.41;;;11.50;100.00
10474;BME280;5284;50.446;7.904;2023-03-09T13:37:38;96641.97;;;11.29;100.00
10474;BME280;5284;50.446;7.904;2023-03-09T13:42:43;96646.16;;;11.09;100.00
10474;BME280;5284;50.446;7.904;2023-03-09T13:47:51;96638.03;;;11.03;100.00
10474;BME280;5284;50.446;7.904;2023-03-09T13:53:00;96645.03;;;11.41;100.00
10474;BME280;5284;50.446;7.904;2023-03-09T13:58:13;96638.38;;;11.37;100.00
10474;BME280;5284;50.446;7.904;2023-03-09T14:03:16;96643.63;;;11.30;100.00
10474;BME280;5284;50.446;7.904;2023-03-09T14:08:21;96645.69;;;11.06;100.00
10474;BME280;5284;50.446;7.904;2023-03-09T14:13:25;96631.53;;;11.05;100.00
10474;BME280;5284;50.446;7.904;2023-03-09T14:18:34;96631.13;;;10.94;100.00
10474;BME280;5284;50.446;7.904;2023-03-09T14:23:41;96637.00;;;11.26;100.00
10474;BME280;5284;50.446;7.904;2023-03-09T14:28:59;96625.94;;;11.66;100.00
10474;BME280;5284;50.446;7.904;2023-03-09T14:34:06;96618.06;;;11.50;100.00
10474;BME280;5284;50.446;7.904;2023-03-09T14:39:21;96614.16;;;11.75;100.00
10474;BME280;5284;50.446;7.904;2023-03-09T14:44:30;96610.28;;;11.78;100.00
10474;BME280;5284;50.446;7.904;2023-03-09T14:49:33;96608.44;;;11.78;100.00
10474;BME280;5284;50.446;7.904;2023-03-09T14:54:38;96615.63;;;11.78;100.00
10474;BME280;5284;50.446;7.904;2023-03-09T14:59:41;96627.03;;;11.72;100.00
10474;BME280;5284;50.446;7.904;2023-03-09T15:04:46;96635.28;;;11.48;100.00
10474;BME280;5284;50.446;7.904;2023-03-09T15:09:50;96653.41;;;11.52;100.00
10474;BME280;5284;50.446;7.904;2023-03-09T15:14:53;96625.97;;;11.29;100.00
10474;BME280;5284;50.446;7.904;2023-03-09T15:19:56;96625.00;;;11.22;100.00
10474;BME280;5284;50.446;7.904;2023-03-09T15:25:00;96616.03;;;11.23;100.00
10474;BME280;5284;50.446;7.904;2023-03-09T15:30:05;96615.94;;;11.31;100.00
10474;BME280;5284;50.446;7.904;2023-03-09T15:35:12;96616.84;;;11.24;100.00
10474;BME280;5284;50.446;7.904;2023-03-09T15:40:17;96621.91;;;11.19;100.00
10474;BME280;5284;50.446;7.904;2023-03-09T15:45:20;96616.44;;;11.12;100.00
10474;BME280;5284;50.446;7.904;2023-03-09T15:50:25;96612.00;;;11.05;100.00
10474;BME280;5284;50.446;7.904;2023-03-09T15:55:31;96605.75;;;10.98;100.00
10474;BME280;5284;50.446;7.904;2023-03-09T16:00:34;96600.25;;;10.99;100.00
10474;BME280;5284;50.446;7.904;2023-03-09T16:05:37;96599.75;;;10.96;100.00
10474;BME280;5284;50.446;7.904;2023-03-09T16:10:41;96600.78;;;10.95;100.00
10474;BME280;5284;50.446;7.904;2023-03-09T16:15:44;96594.50;;;10.88;100.00
10474;BME280;5284;50.446;7.904;2023-03-09T16:20:46;96594.22;;;10.83;100.00
10474;BME280;5284;50.446;7.904;2023-03-09T16:25:53;96599.66;;;10.89;100.00
10474;BME280;5284;50.446;7.904;2023-03-09T16:30:56;96593.00;;;10.85;100.00
10474;BME280;5284;50.446;7.904;2023-03-09T16:36:01;96590.97;;;10.73;100.00
10474;BME280;5284;50.446;7.904;2023-03-09T16:41:10;96576.53;;;10.67;100.00
10474;BME280;5284;50.446;7.904;2023-03-09T16:46:16;96585.69;;;10.65;100.00
10474;BME280;5284;50.446;7.904;2023-03-09T16:51:20;96592.75;;;10.58;100.00
10474;BME280;5284;50.446;7.904;2023-03-09T16:56:25;96601.94;;;10.56;100.00
10474;BME280;5284;50.446;7.904;2023-03-09T17:01:28;96588.13;;;10.52;100.00
10474;BME280;5284;50.446;7.904;2023-03-09T17:06:31;96581.03;;;10.45;100.00
10474;BME280;5284;50.446;7.904;2023-03-09T17:11:35;96578.41;;;10.37;100.00
10474;BME280;5284;50.446;7.904;2023-03-09T17:16:38;96565.47;;;10.34;100.00
10474;BME280;5284;50.446;7.904;2023-03-09T17:21:41;96573.97;;;10.29;100.00
10474;BME280;5284;50.446;7.904;2023-03-09T17:26:45;96570.56;;;10.21;100.00
10474;BME280;5284;50.446;7.904;2023-03-09T17:31:48;96571.22;;;10.15;100.00
10474;BME280;5284;50.446;7.904;2023-03-09T17:36:51;96561.78;;;10.12;100.00
10474;BME280;5284;50.446;7.904;2023-03-09T17:41:55;96568.28;;;10.10;100.00
10474;BME280;5284;50.446;7.904;2023-03-09T17:46:58;96567.81;;;10.06;100.00
10474;BME280;5284;50.446;7.904;2023-03-09T17:52:03;96559.66;;;10.00;100.00
10474;BME280;5284;50.446;7.904;2023-03-09T17:57:09;96558.00;;;9.99;100.00
10474;BME280;5284;50.446;7.904;2023-03-09T18:02:14;96552.38;;;9.94;100.00
10474;BME280;5284;50.446;7.904;2023-03-09T18:07:19;96542.06;;;9.91;100.00
10474;BME280;5284;50.446;7.904;2023-03-09T18:12:23;96537.44;;;9.85;100.00
10474;BME280;5284;50.446;7.904;2023-03-09T18:17:27;96537.31;;;9.78;100.00
10474;BME280;5284;50.446;7.904;2023-03-09T18:22:31;96544.25;;;9.87;100.00
10474;BME280;5284;50.446;7.904;2023-03-09T18:27:35;96536.41;;;9.86;100.00
10474;BME280;5284;50.446;7.904;2023-03-09T18:32:38;96536.59;;;9.84;100.00
10474;BME280;5284;50.446;7.904;2023-03-09T18:37:46;96524.34;;;9.75;100.00
10474;BME280;5284;50.446;7.904;2023-03-09T18:42:50;96521.41;;;9.70;100.00
10474;BME280;5284;50.446;7.904;2023-03-09T18:47:53;96514.94;;;9.65;100.00
10474;BME280;5284;50.446;7.904;2023-03-09T18:52:56;96500.78;;;9.64;100.00
10474;BME280;5284;50.446;7.904;2023-03-09T18:58:00;96486.00;;;9.62;100.00
10474;BME280;5284;50.446;7.904;2023-03-09T19:03:03;96486.81;;;9.70;100.00
10474;BME280;5284;50.446;7.904;2023-03-09T19:08:06;96480.03;;;9.60;100.00
10474;BME280;5284;50.446;7.904;2023-03-09T19:13:10;96477.19;;;9.61;100.00
10474;BME280;5284;50.446;7.904;2023-03-09T19:18:13;96460.19;;;9.70;100.00
10474;BME280;5284;50.446;7.904;2023-03-09T19:23:17;96448.41;;;9.65;100.00
10474;BME280;5284;50.446;7.904;2023-03-09T19:28:24;96441.41;;;9.64;100.00
10474;BME280;5284;50.446;7.904;2023-03-09T19:33:28;96434.75;;;9.68;100.00
10474;BME280;5284;50.446;7.904;2023-03-09T19:38:31;96426.75;;;9.68;100.00
10474;BME280;5284;50.446;7.904;2023-03-09T19:43:35;96408.63;;;9.71;100.00
10474;BME280;5284;50.446;7.904;2023-03-09T19:48:39;96412.31;;;9.62;100.00
10474;BME280;5284;50.446;7.904;2023-03-09T19:53:44;96386.53;;;9.63;100.00
10474;BME280;5284;50.446;7.904;2023-03-09T19:58:50;96384.53;;;9.65;100.00
10474;BME280;5284;50.446;7.904;2023-03-09T20:03:54;96374.59;;;9.59;100.00
10474;BME280;5284;50.446;7.904;2023-03-09T20:08:58;96362.59;;;9.63;100.00
10474;BME280;5284;50.446;7.904;2023-03-09T20:14:03;96354.84;;;9.53;100.00
10474;BME280;5284;50.446;7.904;2023-03-09T20:19:08;96338.72;;;9.55;100.00
10474;BME280;5284;50.446;7.904;2023-03-09T20:24:14;96337.34;;;9.59;100.00
10474;BME280;5284;50.446;7.904;2023-03-09T20:29:18;96331.19;;;9.58;100.00
10474;BME280;5284;50.446;7.904;2023-03-09T20:34:22;96323.09;;;9.52;100.00
10474;BME280;5284;50.446;7.904;2023-03-09T20:39:25;96312.50;;;9.44;100.00
10474;BME280;5284;50.446;7.904;2023-03-09T20:44:29;96313.34;;;9.44;100.00
10474;BME280;5284;50.446;7.904;2023-03-09T20:49:32;96297.97;;;9.54;100.00
10474;BME280;5284;50.446;7.904;2023-03-09T20:54:35;96294.00;;;9.50;100.00
10474;BME280;5284;50.446;7.904;2023-03-09T20:59:40;96293.00;;;9.51;100.00
10474;BME280;5284;50.446;7.904;2023-03-09T21:04:43;96287.56;;;9.45;100.00
10474;BME280;5284;50.446;7.904;2023-03-09T21:09:47;96284.53;;;9.48;100.00
10474;BME280;5284;50.446;7.904;2023-03-09T21:14:55;96275.50;;;9.57;100.00
10474;BME280;5284;50.446;7.904;2023-03-09T21:19:58;96264.13;;;9.63;100.00
10474;BME280;5284;50.446;7.904;2023-03-09T21:25:02;96265.88;;;9.56;100.00
10474;BME280;5284;50.446;7.904;2023-03-09T21:30:10;96260.72;;;9.54;100.00
10474;BME280;5284;50.446;7.904;2023-03-09T21:35:16;96244.50;;;9.64;100.00
10474;BME280;5284;50.446;7.904;2023-03-09T21:40:19;96235.69;;;9.63;100.00
10474;BME280;5284;50.446;7.904;2023-03-09T21:45:24;96228.28;;;9.73;100.00
10474;BME280;5284;50.446;7.904;2023-03-09T21:50:27;96216.00;;;9.72;100.00
10474;BME280;5284;50.446;7.904;2023-03-09T21:55:31;96224.88;;;9.79;100.00
10474;BME280;5284;50.446;7.904;2023-03-09T22:00:37;96203.50;;;9.73;100.00
10474;BME280;5284;50.446;7.904;2023-03-09T22:05:40;96190.09;;;9.81;100.00
10474;BME280;5284;50.446;7.904;2023-03-09T22:10:43;96172.84;;;9.77;100.00
10474;BME280;5284;50.446;7.904;2023-03-09T22:15:48;96161.44;;;9.83;100.00
10474;BME280;5284;50.446;7.904;2023-03-09T22:21:00;96151.53;;;9.77;100.00
10474;BME280;5284;50.446;7.904;2023-03-09T22:26:04;96146.59;;;9.74;100.00
10474;BME280;5284;50.446;7.904;2023-03-09T22:31:11;96129.19;;;9.71;100.00
10474;BME280;5284;50.446;7.904;2023-03-09T22:36:16;96105.41;;;9.70;100.00
10474;BME280;5284;50.446;7.904;2023-03-09T22:41:21;96095.22;;;9.59;100.00
10474;BME280;5284;50.446;7.904;2023-03-09T22:46:25;96079.34;;;9.51;100.00
10474;BME280;5284;50.446;7.904;2023-03-09T22:51:28;96065.75;;;9.46;100.00
10474;BME280;5284;50.446;7.904;2023-03-09T22:56:31;96057.41;;;9.49;100.00
10474;BME280;5284;50.446;7.904;2023-03-09T23:01:36;96044.97;;;9.49;100.00
10474;BME280;5284;50.446;7.904;2023-03-09T23:06:40;96038.25;;;9.53;100.00
10474;BME280;5284;50.446;7.904;2023-03-09T23:11:43;96030.72;;;9.57;100.00
10474;BME280;5284;50.446;7.904;2023-03-09T23:16:47;96024.56;;;9.56;100.00
10474;BME280;5284;50.446;7.904;2023-03-09T23:21:51;96016.69;;;9.63;100.00
10474;BME280;5284;50.446;7.904;2023-03-09T23:26:54;96011.88;;;9.73;100.00
10474;BME280;5284;50.446;7.904;2023-03-09T23:31:58;96003.63;;;9.68;100.00
10474;BME280;5284;50.446;7.904;2023-03-09T23:37:01;95988.13;;;9.71;100.00
10474;BME280;5284;50.446;7.904;2023-03-09T23:42:05;95987.66;;;9.68;100.00
10474;BME280;5284;50.446;7.904;2023-03-09T23:47:09;95984.47;;;9.72;100.00
10474;BME280;5284;50.446;7.904;2023-03-09T23:52:12;95993.72;;;9.76;100.00
10474;BME280;5284;50.446;7.904;2023-03-09T23:57:14;95982.59;;;9.73;100.00
